sensor_id;sensor_type;location;lat;lon;timestamp;P1;durP1;ratioP1;P2;durP2;ratioP2
46589;SDS011;32313;48.722;9.362;2022-11-11T00:00:50;24.63;;;22.17;;
46589;SDS011;32313;48.722;9.362;2022-11-11T00:03:41;27.53;;;24.70;;
46589;SDS011;32313;48.722;9.362;2022-11-11T00:06:25;27.43;;;24.43;;
46589;SDS011;32313;48.722;9.362;2022-11-11T00:09:09;29.10;;;25.33;;
46589;SDS011;32313;48.722;9.362;2022-11-11T00:11:53;30.00;;;25.80;;
46589;SDS011;32313;48.722;9.362;2022-11-11T00:14:37;28.40;;;25.33;;
46589;SDS011;32313;48.722;9.362;2022-11-11T00:17:22;29.43;;;24.33;;
46589;SDS011;32313;48.722;9.362;2022-11-11T00:20:31;30.00;;;25.00;;
46589;SDS011;32313;48.722;9.362;2022-11-11T00:23:34;29.40;;;26.20;;
46589;SDS011;32313;48.722;9.362;2022-11-11T00:26:37;26.17;;;23.47;;
46589;SDS011;32313;48.722;9.362;2022-11-11T00:29:21;26.13;;;23.50;;
46589;SDS011;32313;48.722;9.362;2022-11-11T00:32:05;28.03;;;23.87;;
46589;SDS011;32313;48.722;9.362;2022-11-11T00:35:07;32.03;;;26.67;;
46589;SDS011;32313;48.722;9.362;2022-11-11T00:38:12;44.80;;;33.60;;
46589;SDS011;32313;48.722;9.362;2022-11-11T00:41:17;37.37;;;29.43;;
46589;SDS011;32313;48.722;9.362;2022-11-11T00:44:02;39.97;;;31.80;;
46589;SDS011;32313;48.722;9.362;2022-11-11T00:46:47;39.67;;;31.43;;
46589;SDS011;32313;48.722;9.362;2022-11-11T00:49:50;35.83;;;29.23;;
46589;SDS011;32313;48.722;9.362;2022-11-11T00:52:53;36.40;;;26.47;;
46589;SDS011;32313;48.722;9.362;2022-11-11T00:55:37;29.47;;;26.23;;
46589;SDS011;32313;48.722;9.362;2022-11-11T00:58:23;30.03;;;26.77;;
46589;SDS011;32313;48.722;9.362;2022-11-11T01:01:08;28.13;;;25.10;;
46589;SDS011;32313;48.722;9.362;2022-11-11T01:03:52;25.97;;;23.27;;
46589;SDS011;32313;48.722;9.362;2022-11-11T01:06:36;26.83;;;24.03;;
46589;SDS011;32313;48.722;9.362;2022-11-11T01:09:20;26.80;;;24.10;;
46589;SDS011;32313;48.722;9.362;2022-11-11T01:12:04;26.03;;;23.43;;
46589;SDS011;32313;48.722;9.362;2022-11-11T01:14:48;27.37;;;24.47;;
46589;SDS011;32313;48.722;9.362;2022-11-11T01:17:32;26.40;;;23.77;;
46589;SDS011;32313;48.722;9.362;2022-11-11T01:20:16;25.73;;;23.17;;
46589;SDS011;32313;48.722;9.362;2022-11-11T01:23:00;27.37;;;24.67;;
46589;SDS011;32313;48.722;9.362;2022-11-11T01:25:44;26.07;;;23.50;;
46589;SDS011;32313;48.722;9.362;2022-11-11T01:28:29;27.93;;;25.03;;
46589;SDS011;32313;48.722;9.362;2022-11-11T01:31:14;26.00;;;23.50;;
46589;SDS011;32313;48.722;9.362;2022-11-11T01:34:00;24.77;;;22.33;;
46589;SDS011;32313;48.722;9.362;2022-11-11T01:36:44;24.33;;;21.93;;
46589;SDS011;32313;48.722;9.362;2022-11-11T01:39:28;25.37;;;22.77;;
46589;SDS011;32313;48.722;9.362;2022-11-11T01:42:12;23.67;;;21.37;;
46589;SDS011;32313;48.722;9.362;2022-11-11T01:44:56;22.07;;;20.07;;
46589;SDS011;32313;48.722;9.362;2022-11-11T01:47:41;26.20;;;23.53;;
46589;SDS011;32313;48.722;9.362;2022-11-11T01:50:57;24.67;;;22.27;;
46589;SDS011;32313;48.722;9.362;2022-11-11T01:53:42;22.60;;;20.60;;
46589;SDS011;32313;48.722;9.362;2022-11-11T01:56:27;23.00;;;20.77;;
46589;SDS011;32313;48.722;9.362;2022-11-11T01:59:13;26.73;;;23.13;;
46589;SDS011;32313;48.722;9.362;2022-11-11T02:02:00;26.20;;;23.60;;
46589;SDS011;32313;48.722;9.362;2022-11-11T02:04:48;24.13;;;21.73;;
46589;SDS011;32313;48.722;9.362;2022-11-11T02:07:53;22.33;;;20.23;;
46589;SDS011;32313;48.722;9.362;2022-11-11T02:10:40;23.87;;;21.53;;
46589;SDS011;32313;48.722;9.362;2022-11-11T02:13:27;24.63;;;21.67;;
46589;SDS011;32313;48.722;9.362;2022-11-11T02:16:32;28.47;;;23.17;;
46589;SDS011;32313;48.722;9.362;2022-11-11T02:19:17;31.20;;;24.97;;
46589;SDS011;32313;48.722;9.362;2022-11-11T02:22:07;60.60;;;34.27;;
46589;SDS011;32313;48.722;9.362;2022-11-11T02:24:56;48.50;;;31.57;;
46589;SDS011;32313;48.722;9.362;2022-11-11T02:27:42;79.03;;;40.07;;
46589;SDS011;32313;48.722;9.362;2022-11-11T02:30:30;93.47;;;40.13;;
46589;SDS011;32313;48.722;9.362;2022-11-11T02:33:14;48.53;;;32.07;;
46589;SDS011;32313;48.722;9.362;2022-11-11T02:35:58;50.17;;;32.37;;
46589;SDS011;32313;48.722;9.362;2022-11-11T02:38:44;37.20;;;26.80;;
46589;SDS011;32313;48.722;9.362;2022-11-11T02:41:28;39.03;;;28.30;;
46589;SDS011;32313;48.722;9.362;2022-11-11T02:44:31;38.70;;;27.23;;
46589;SDS011;32313;48.722;9.362;2022-11-11T02:47:15;30.27;;;24.00;;
46589;SDS011;32313;48.722;9.362;2022-11-11T02:49:59;31.73;;;23.90;;
46589;SDS011;32313;48.722;9.362;2022-11-11T02:52:43;39.43;;;25.77;;
46589;SDS011;32313;48.722;9.362;2022-11-11T02:55:27;41.03;;;26.00;;
46589;SDS011;32313;48.722;9.362;2022-11-11T02:58:12;37.63;;;25.63;;
46589;SDS011;32313;48.722;9.362;2022-11-11T03:00:57;56.93;;;26.80;;
46589;SDS011;32313;48.722;9.362;2022-11-11T03:03:41;59.73;;;28.23;;
46589;SDS011;32313;48.722;9.362;2022-11-11T03:06:25;50.83;;;27.83;;
46589;SDS011;32313;48.722;9.362;2022-11-11T03:09:09;63.30;;;28.77;;
46589;SDS011;32313;48.722;9.362;2022-11-11T03:11:53;38.17;;;23.83;;
46589;SDS011;32313;48.722;9.362;2022-11-11T03:14:37;60.63;;;26.43;;
46589;SDS011;32313;48.722;9.362;2022-11-11T03:17:21;63.37;;;29.93;;
46589;SDS011;32313;48.722;9.362;2022-11-11T03:20:24;52.90;;;27.93;;
46589;SDS011;32313;48.722;9.362;2022-11-11T03:23:27;36.47;;;24.30;;
46589;SDS011;32313;48.722;9.362;2022-11-11T03:26:11;33.00;;;22.70;;
46589;SDS011;32313;48.722;9.362;2022-11-11T03:28:55;27.73;;;22.83;;
46589;SDS011;32313;48.722;9.362;2022-11-11T03:31:40;25.73;;;22.93;;
46589;SDS011;32313;48.722;9.362;2022-11-11T03:34:24;25.17;;;21.20;;
46589;SDS011;32313;48.722;9.362;2022-11-11T03:37:09;27.13;;;23.47;;
46589;SDS011;32313;48.722;9.362;2022-11-11T03:40:13;26.07;;;23.03;;
46589;SDS011;32313;48.722;9.362;2022-11-11T03:42:57;30.33;;;24.83;;
46589;SDS011;32313;48.722;9.362;2022-11-11T03:45:42;27.67;;;22.97;;
46589;SDS011;32313;48.722;9.362;2022-11-11T03:48:28;29.60;;;23.93;;
46589;SDS011;32313;48.722;9.362;2022-11-11T03:51:14;26.07;;;22.97;;
46589;SDS011;32313;48.722;9.362;2022-11-11T03:53:58;27.60;;;23.63;;
46589;SDS011;32313;48.722;9.362;2022-11-11T03:56:42;34.10;;;25.30;;
46589;SDS011;32313;48.722;9.362;2022-11-11T03:59:26;29.30;;;22.83;;
46589;SDS011;32313;48.722;9.362;2022-11-11T04:02:11;25.63;;;22.97;;
46589;SDS011;32313;48.722;9.362;2022-11-11T04:05:15;25.40;;;22.53;;
46589;SDS011;32313;48.722;9.362;2022-11-11T04:08:19;31.07;;;23.50;;
46589;SDS011;32313;48.722;9.362;2022-11-11T04:14:10;31.53;;;23.83;;
46589;SDS011;32313;48.722;9.362;2022-11-11T04:17:15;34.67;;;26.33;;
46589;SDS011;32313;48.722;9.362;2022-11-11T04:20:00;32.53;;;25.30;;
46589;SDS011;32313;48.722;9.362;2022-11-11T04:23:04;23.27;;;20.33;;
46589;SDS011;32313;48.722;9.362;2022-11-11T04:25:48;23.90;;;21.43;;
46589;SDS011;32313;48.722;9.362;2022-11-11T04:28:32;32.77;;;26.17;;
46589;SDS011;32313;48.722;9.362;2022-11-11T04:31:35;57.50;;;24.30;;
46589;SDS011;32313;48.722;9.362;2022-11-11T04:34:19;34.57;;;21.97;;
46589;SDS011;32313;48.722;9.362;2022-11-11T04:37:03;31.57;;;24.03;;
46589;SDS011;32313;48.722;9.362;2022-11-11T04:39:48;25.20;;;22.37;;
46589;SDS011;32313;48.722;9.362;2022-11-11T04:42:52;130.10;;;31.60;;
46589;SDS011;32313;48.722;9.362;2022-11-11T04:45:37;28.07;;;22.70;;
46589;SDS011;32313;48.722;9.362;2022-11-11T04:48:21;29.93;;;23.13;;
46589;SDS011;32313;48.722;9.362;2022-11-11T04:51:06;36.33;;;24.17;;
46589;SDS011;32313;48.722;9.362;2022-11-11T04:53:50;36.63;;;25.47;;
46589;SDS011;32313;48.722;9.362;2022-11-11T04:56:34;35.83;;;26.43;;
46589;SDS011;32313;48.722;9.362;2022-11-11T04:59:30;34.17;;;24.30;;
46589;SDS011;32313;48.722;9.362;2022-11-11T05:02:14;43.57;;;26.93;;
46589;SDS011;32313;48.722;9.362;2022-11-11T05:05:17;32.53;;;24.77;;
46589;SDS011;32313;48.722;9.362;2022-11-11T05:08:01;49.47;;;25.53;;
46589;SDS011;32313;48.722;9.362;2022-11-11T05:11:05;50.03;;;27.53;;
46589;SDS011;32313;48.722;9.362;2022-11-11T05:13:50;37.70;;;25.47;;
46589;SDS011;32313;48.722;9.362;2022-11-11T05:16:54;35.57;;;24.70;;
46589;SDS011;32313;48.722;9.362;2022-11-11T05:19:59;28.57;;;22.90;;
46589;SDS011;32313;48.722;9.362;2022-11-11T05:23:02;30.70;;;24.07;;
46589;SDS011;32313;48.722;9.362;2022-11-11T05:25:45;33.80;;;23.80;;
46589;SDS011;32313;48.722;9.362;2022-11-11T05:28:30;32.13;;;22.10;;
46589;SDS011;32313;48.722;9.362;2022-11-11T05:31:14;30.13;;;22.43;;
46589;SDS011;32313;48.722;9.362;2022-11-11T05:33:58;33.13;;;24.07;;
46589;SDS011;32313;48.722;9.362;2022-11-11T05:36:42;37.40;;;23.63;;
46589;SDS011;32313;48.722;9.362;2022-11-11T05:39:26;26.67;;;21.07;;
46589;SDS011;32313;48.722;9.362;2022-11-11T05:42:11;34.67;;;22.07;;
46589;SDS011;32313;48.722;9.362;2022-11-11T05:44:55;34.03;;;22.53;;
46589;SDS011;32313;48.722;9.362;2022-11-11T05:47:40;33.90;;;25.20;;
46589;SDS011;32313;48.722;9.362;2022-11-11T05:50:24;30.93;;;24.37;;
46589;SDS011;32313;48.722;9.362;2022-11-11T05:53:08;30.30;;;23.03;;
46589;SDS011;32313;48.722;9.362;2022-11-11T05:55:52;40.03;;;26.60;;
46589;SDS011;32313;48.722;9.362;2022-11-11T05:58:36;33.10;;;26.17;;
46589;SDS011;32313;48.722;9.362;2022-11-11T06:01:20;31.87;;;24.33;;
46589;SDS011;32313;48.722;9.362;2022-11-11T06:04:05;30.67;;;25.17;;
46589;SDS011;32313;48.722;9.362;2022-11-11T06:06:49;30.37;;;24.57;;
46589;SDS011;32313;48.722;9.362;2022-11-11T06:09:34;28.10;;;23.23;;
46589;SDS011;32313;48.722;9.362;2022-11-11T06:12:18;28.10;;;24.30;;
46589;SDS011;32313;48.722;9.362;2022-11-11T06:15:02;25.73;;;22.83;;
46589;SDS011;32313;48.722;9.362;2022-11-11T06:17:47;24.20;;;21.63;;
46589;SDS011;32313;48.722;9.362;2022-11-11T06:20:31;25.27;;;21.53;;
46589;SDS011;32313;48.722;9.362;2022-11-11T06:23:17;24.97;;;22.00;;
46589;SDS011;32313;48.722;9.362;2022-11-11T06:26:02;24.53;;;19.60;;
46589;SDS011;32313;48.722;9.362;2022-11-11T06:28:55;21.67;;;19.37;;
46589;SDS011;32313;48.722;9.362;2022-11-11T06:31:40;23.60;;;21.03;;
46589;SDS011;32313;48.722;9.362;2022-11-11T06:34:24;24.03;;;19.60;;
46589;SDS011;32313;48.722;9.362;2022-11-11T06:37:08;23.37;;;20.60;;
46589;SDS011;32313;48.722;9.362;2022-11-11T06:39:53;26.67;;;21.20;;
46589;SDS011;32313;48.722;9.362;2022-11-11T06:42:37;24.57;;;21.93;;
46589;SDS011;32313;48.722;9.362;2022-11-11T06:45:21;24.33;;;21.37;;
46589;SDS011;32313;48.722;9.362;2022-11-11T06:48:09;23.03;;;20.73;;
46589;SDS011;32313;48.722;9.362;2022-11-11T06:50:59;24.77;;;21.70;;
46589;SDS011;32313;48.722;9.362;2022-11-11T06:53:45;27.70;;;20.83;;
46589;SDS011;32313;48.722;9.362;2022-11-11T06:56:30;30.77;;;21.30;;
46589;SDS011;32313;48.722;9.362;2022-11-11T06:59:14;22.57;;;20.27;;
46589;SDS011;32313;48.722;9.362;2022-11-11T07:01:58;24.13;;;19.87;;
46589;SDS011;32313;48.722;9.362;2022-11-11T07:04:42;33.40;;;24.13;;
46589;SDS011;32313;48.722;9.362;2022-11-11T07:07:26;31.60;;;22.70;;
46589;SDS011;32313;48.722;9.362;2022-11-11T07:10:11;27.43;;;21.60;;
46589;SDS011;32313;48.722;9.362;2022-11-11T07:12:55;30.03;;;22.90;;
46589;SDS011;32313;48.722;9.362;2022-11-11T07:15:39;31.47;;;23.40;;
46589;SDS011;32313;48.722;9.362;2022-11-11T07:18:25;30.30;;;23.03;;
46589;SDS011;32313;48.722;9.362;2022-11-11T07:21:09;29.97;;;23.13;;
46589;SDS011;32313;48.722;9.362;2022-11-11T07:23:53;28.63;;;22.60;;
46589;SDS011;32313;48.722;9.362;2022-11-11T07:26:37;25.77;;;21.43;;
46589;SDS011;32313;48.722;9.362;2022-11-11T07:29:21;29.80;;;22.57;;
46589;SDS011;32313;48.722;9.362;2022-11-11T07:32:05;28.57;;;21.33;;
46589;SDS011;32313;48.722;9.362;2022-11-11T07:34:49;21.97;;;19.83;;
46589;SDS011;32313;48.722;9.362;2022-11-11T07:37:34;26.03;;;21.50;;
46589;SDS011;32313;48.722;9.362;2022-11-11T07:40:19;23.60;;;21.10;;
46589;SDS011;32313;48.722;9.362;2022-11-11T07:43:04;22.23;;;19.87;;
46589;SDS011;32313;48.722;9.362;2022-11-11T07:45:48;22.33;;;20.00;;
46589;SDS011;32313;48.722;9.362;2022-11-11T07:48:32;22.00;;;19.70;;
46589;SDS011;32313;48.722;9.362;2022-11-11T07:51:16;26.03;;;21.00;;
46589;SDS011;32313;48.722;9.362;2022-11-11T07:54:00;24.40;;;21.80;;
46589;SDS011;32313;48.722;9.362;2022-11-11T07:56:44;28.00;;;24.03;;
46589;SDS011;32313;48.722;9.362;2022-11-11T07:59:28;23.47;;;20.50;;
46589;SDS011;32313;48.722;9.362;2022-11-11T08:02:12;22.93;;;20.53;;
46589;SDS011;32313;48.722;9.362;2022-11-11T08:04:57;23.83;;;21.47;;
46589;SDS011;32313;48.722;9.362;2022-11-11T08:07:41;23.70;;;19.17;;
46589;SDS011;32313;48.722;9.362;2022-11-11T08:10:25;22.90;;;20.50;;
46589;SDS011;32313;48.722;9.362;2022-11-11T08:13:10;22.40;;;20.17;;
46589;SDS011;32313;48.722;9.362;2022-11-11T08:16:14;19.37;;;17.47;;
46589;SDS011;32313;48.722;9.362;2022-11-11T08:18:58;23.13;;;20.87;;
46589;SDS011;32313;48.722;9.362;2022-11-11T08:21:43;20.70;;;18.60;;
46589;SDS011;32313;48.722;9.362;2022-11-11T08:24:28;21.57;;;19.30;;
46589;SDS011;32313;48.722;9.362;2022-11-11T08:27:12;21.93;;;19.73;;
46589;SDS011;32313;48.722;9.362;2022-11-11T08:29:56;22.03;;;19.13;;
46589;SDS011;32313;48.722;9.362;2022-11-11T08:32:40;20.00;;;18.10;;
46589;SDS011;32313;48.722;9.362;2022-11-11T08:35:24;18.47;;;16.47;;
46589;SDS011;32313;48.722;9.362;2022-11-11T08:38:10;21.83;;;19.53;;
46589;SDS011;32313;48.722;9.362;2022-11-11T08:40:58;22.80;;;20.70;;
46589;SDS011;32313;48.722;9.362;2022-11-11T08:43:43;23.10;;;20.67;;
46589;SDS011;32313;48.722;9.362;2022-11-11T08:46:27;28.33;;;22.47;;
46589;SDS011;32313;48.722;9.362;2022-11-11T08:49:11;20.37;;;18.00;;
46589;SDS011;32313;48.722;9.362;2022-11-11T08:51:55;18.97;;;17.13;;
46589;SDS011;32313;48.722;9.362;2022-11-11T08:54:39;18.27;;;16.00;;
46589;SDS011;32313;48.722;9.362;2022-11-11T08:57:23;16.53;;;14.90;;
46589;SDS011;32313;48.722;9.362;2022-11-11T09:00:08;16.90;;;15.30;;
46589;SDS011;32313;48.722;9.362;2022-11-11T09:02:53;15.80;;;14.37;;
46589;SDS011;32313;48.722;9.362;2022-11-11T09:05:38;15.97;;;13.57;;
46589;SDS011;32313;48.722;9.362;2022-11-11T09:08:23;13.83;;;12.63;;
46589;SDS011;32313;48.722;9.362;2022-11-11T09:11:07;13.50;;;12.27;;
46589;SDS011;32313;48.722;9.362;2022-11-11T09:13:51;30.93;;;13.53;;
46589;SDS011;32313;48.722;9.362;2022-11-11T09:16:35;11.90;;;10.80;;
46589;SDS011;32313;48.722;9.362;2022-11-11T09:19:19;11.10;;;10.10;;
46589;SDS011;32313;48.722;9.362;2022-11-11T09:22:04;15.47;;;9.03;;
46589;SDS011;32313;48.722;9.362;2022-11-11T09:24:49;52.97;;;12.87;;
46589;SDS011;32313;48.722;9.362;2022-11-11T09:27:34;45.03;;;11.50;;
46589;SDS011;32313;48.722;9.362;2022-11-11T09:30:18;14.07;;;8.70;;
46589;SDS011;32313;48.722;9.362;2022-11-11T09:33:04;9.17;;;8.20;;
46589;SDS011;32313;48.722;9.362;2022-11-11T09:35:48;10.07;;;8.37;;
46589;SDS011;32313;48.722;9.362;2022-11-11T09:38:32;9.20;;;7.30;;
46589;SDS011;32313;48.722;9.362;2022-11-11T09:44:44;8.40;;;7.27;;
46589;SDS011;32313;48.722;9.362;2022-11-11T09:51:08;7.27;;;6.37;;
46589;SDS011;32313;48.722;9.362;2022-11-11T09:54:05;7.33;;;6.57;;
46589;SDS011;32313;48.722;9.362;2022-11-11T09:56:55;8.73;;;7.83;;
46589;SDS011;32313;48.722;9.362;2022-11-11T09:59:47;9.50;;;7.00;;
46589;SDS011;32313;48.722;9.362;2022-11-11T10:02:38;8.27;;;7.23;;
46589;SDS011;32313;48.722;9.362;2022-11-11T10:05:33;6.97;;;6.37;;
46589;SDS011;32313;48.722;9.362;2022-11-11T10:08:30;8.43;;;6.17;;
46589;SDS011;32313;48.722;9.362;2022-11-11T10:11:21;6.70;;;6.10;;
46589;SDS011;32313;48.722;9.362;2022-11-11T10:14:13;6.80;;;6.10;;
46589;SDS011;32313;48.722;9.362;2022-11-11T10:17:17;9.60;;;7.30;;
46589;SDS011;32313;48.722;9.362;2022-11-11T10:20:24;10.90;;;8.27;;
46589;SDS011;32313;48.722;9.362;2022-11-11T10:23:16;8.83;;;7.20;;
46589;SDS011;32313;48.722;9.362;2022-11-11T10:26:15;8.10;;;7.33;;
46589;SDS011;32313;48.722;9.362;2022-11-11T10:29:01;8.23;;;7.43;;
46589;SDS011;32313;48.722;9.362;2022-11-11T10:32:02;7.23;;;6.30;;
46589;SDS011;32313;48.722;9.362;2022-11-11T10:35:15;7.27;;;6.60;;
46589;SDS011;32313;48.722;9.362;2022-11-11T10:38:12;8.33;;;6.23;;
46589;SDS011;32313;48.722;9.362;2022-11-11T10:41:10;7.80;;;5.73;;
46589;SDS011;32313;48.722;9.362;2022-11-11T10:44:20;6.83;;;5.30;;
46589;SDS011;32313;48.722;9.362;2022-11-11T10:47:14;5.13;;;4.63;;
46589;SDS011;32313;48.722;9.362;2022-11-11T10:50:35;4.40;;;4.00;;
46589;SDS011;32313;48.722;9.362;2022-11-11T10:57:00;6.13;;;5.00;;
46589;SDS011;32313;48.722;9.362;2022-11-11T10:59:55;5.73;;;4.93;;
46589;SDS011;32313;48.722;9.362;2022-11-11T11:02:47;5.70;;;5.10;;
46589;SDS011;32313;48.722;9.362;2022-11-11T11:08:26;6.67;;;5.67;;
46589;SDS011;32313;48.722;9.362;2022-11-11T11:11:15;6.33;;;5.63;;
46589;SDS011;32313;48.722;9.362;2022-11-11T11:14:05;6.83;;;5.97;;
46589;SDS011;32313;48.722;9.362;2022-11-11T11:16:57;10.27;;;5.43;;
46589;SDS011;32313;48.722;9.362;2022-11-11T11:20:05;6.23;;;5.13;;
46589;SDS011;32313;48.722;9.362;2022-11-11T11:22:52;6.00;;;4.90;;
46589;SDS011;32313;48.722;9.362;2022-11-11T11:25:41;6.13;;;4.73;;
46589;SDS011;32313;48.722;9.362;2022-11-11T11:31:40;9.43;;;6.00;;
46589;SDS011;32313;48.722;9.362;2022-11-11T11:34:43;6.77;;;6.13;;
46589;SDS011;32313;48.722;9.362;2022-11-11T11:37:35;6.73;;;5.87;;
46589;SDS011;32313;48.722;9.362;2022-11-11T11:40:43;6.47;;;5.87;;
46589;SDS011;32313;48.722;9.362;2022-11-11T11:43:39;8.30;;;5.97;;
46589;SDS011;32313;48.722;9.362;2022-11-11T11:58:19;7.10;;;6.00;;
46589;SDS011;32313;48.722;9.362;2022-11-11T12:01:17;6.73;;;5.33;;
46589;SDS011;32313;48.722;9.362;2022-11-11T12:07:45;6.23;;;5.53;;
46589;SDS011;32313;48.722;9.362;2022-11-11T12:10:36;5.83;;;5.30;;
46589;SDS011;32313;48.722;9.362;2022-11-11T12:29:11;4.97;;;4.47;;
46589;SDS011;32313;48.722;9.362;2022-11-11T12:31:33;5.63;;;4.90;;
46589;SDS011;32313;48.722;9.362;2022-11-11T12:44:08;8.57;;;4.80;;
46589;SDS011;32313;48.722;9.362;2022-11-11T12:50:03;6.00;;;5.00;;
46589;SDS011;32313;48.722;9.362;2022-11-11T12:53:03;4.43;;;4.03;;
46589;SDS011;32313;48.722;9.362;2022-11-11T13:04:36;5.67;;;4.37;;
46589;SDS011;32313;48.722;9.362;2022-11-11T13:16:51;6.97;;;4.13;;
46589;SDS011;32313;48.722;9.362;2022-11-11T13:19:40;5.10;;;4.50;;
46589;SDS011;32313;48.722;9.362;2022-11-11T13:22:34;4.00;;;3.60;;
46589;SDS011;32313;48.722;9.362;2022-11-11T13:25:22;5.40;;;4.17;;
46589;SDS011;32313;48.722;9.362;2022-11-11T13:28:16;4.93;;;3.67;;
46589;SDS011;32313;48.722;9.362;2022-11-11T13:34:10;4.83;;;3.43;;
46589;SDS011;32313;48.722;9.362;2022-11-11T13:36:57;4.03;;;3.63;;
46589;SDS011;32313;48.722;9.362;2022-11-11T13:39:46;4.30;;;3.60;;
46589;SDS011;32313;48.722;9.362;2022-11-11T13:42:37;5.17;;;3.63;;
46589;SDS011;32313;48.722;9.362;2022-11-11T13:45:28;5.03;;;3.23;;
46589;SDS011;32313;48.722;9.362;2022-11-11T13:54:25;4.77;;;3.30;;
46589;SDS011;32313;48.722;9.362;2022-11-11T14:00:01;4.27;;;3.30;;
46589;SDS011;32313;48.722;9.362;2022-11-11T14:08:59;4.73;;;3.53;;
46589;SDS011;32313;48.722;9.362;2022-11-11T14:11:44;4.50;;;3.70;;
46589;SDS011;32313;48.722;9.362;2022-11-11T14:17:19;5.47;;;3.67;;
46589;SDS011;32313;48.722;9.362;2022-11-11T14:26:26;3.93;;;3.53;;
46589;SDS011;32313;48.722;9.362;2022-11-11T14:29:15;4.97;;;3.60;;
46589;SDS011;32313;48.722;9.362;2022-11-11T14:38:26;5.50;;;3.60;;
46589;SDS011;32313;48.722;9.362;2022-11-11T14:49:53;6.13;;;4.07;;
46589;SDS011;32313;48.722;9.362;2022-11-11T14:52:39;8.57;;;4.67;;
46589;SDS011;32313;48.722;9.362;2022-11-11T14:58:20;8.90;;;4.60;;
46589;SDS011;32313;48.722;9.362;2022-11-11T15:01:11;6.10;;;4.70;;
46589;SDS011;32313;48.722;9.362;2022-11-11T15:04:00;10.47;;;4.43;;
46589;SDS011;32313;48.722;9.362;2022-11-11T15:06:55;8.17;;;4.70;;
46589;SDS011;32313;48.722;9.362;2022-11-11T15:19:41;5.70;;;5.20;;
46589;SDS011;32313;48.722;9.362;2022-11-11T15:22:49;8.33;;;4.97;;
46589;SDS011;32313;48.722;9.362;2022-11-11T15:32:21;25.83;;;6.10;;
46589;SDS011;32313;48.722;9.362;2022-11-11T15:38:10;22.80;;;7.67;;
46589;SDS011;32313;48.722;9.362;2022-11-11T15:40:57;27.17;;;7.07;;
46589;SDS011;32313;48.722;9.362;2022-11-11T15:43:43;18.73;;;6.73;;
46589;SDS011;32313;48.722;9.362;2022-11-11T15:46:28;12.30;;;6.60;;
46589;SDS011;32313;48.722;9.362;2022-11-11T15:49:14;15.13;;;6.60;;
46589;SDS011;32313;48.722;9.362;2022-11-11T15:55:17;8.97;;;6.40;;
46589;SDS011;32313;48.722;9.362;2022-11-11T15:58:49;8.13;;;6.20;;
46589;SDS011;32313;48.722;9.362;2022-11-11T16:01:14;9.40;;;5.73;;
46589;SDS011;32313;48.722;9.362;2022-11-11T16:03:59;9.87;;;6.40;;
46589;SDS011;32313;48.722;9.362;2022-11-11T16:06:43;16.33;;;7.20;;
46589;SDS011;32313;48.722;9.362;2022-11-11T16:09:28;9.23;;;6.77;;
46589;SDS011;32313;48.722;9.362;2022-11-11T16:12:19;8.97;;;6.73;;
46589;SDS011;32313;48.722;9.362;2022-11-11T16:15:09;10.77;;;7.73;;
46589;SDS011;32313;48.722;9.362;2022-11-11T16:18:00;9.90;;;6.63;;
46589;SDS011;32313;48.722;9.362;2022-11-11T16:20:49;7.43;;;6.30;;
46589;SDS011;32313;48.722;9.362;2022-11-11T16:23:38;7.60;;;6.70;;
46589;SDS011;32313;48.722;9.362;2022-11-11T16:26:23;12.43;;;6.70;;
46589;SDS011;32313;48.722;9.362;2022-11-11T16:29:12;8.47;;;7.67;;
46589;SDS011;32313;48.722;9.362;2022-11-11T16:31:58;8.47;;;7.30;;
46589;SDS011;32313;48.722;9.362;2022-11-11T16:34:43;10.60;;;8.10;;
46589;SDS011;32313;48.722;9.362;2022-11-11T16:37:28;9.87;;;7.20;;
46589;SDS011;32313;48.722;9.362;2022-11-11T16:48:48;9.73;;;7.33;;
46589;SDS011;32313;48.722;9.362;2022-11-11T16:54:25;15.57;;;9.43;;
46589;SDS011;32313;48.722;9.362;2022-11-11T16:57:14;11.57;;;8.50;;
46589;SDS011;32313;48.722;9.362;2022-11-11T17:00:01;11.63;;;7.93;;
46589;SDS011;32313;48.722;9.362;2022-11-11T17:02:47;9.83;;;8.90;;
46589;SDS011;32313;48.722;9.362;2022-11-11T17:06:07;10.93;;;8.87;;
46589;SDS011;32313;48.722;9.362;2022-11-11T17:08:52;12.27;;;8.63;;
46589;SDS011;32313;48.722;9.362;2022-11-11T17:14:24;10.50;;;9.20;;
46589;SDS011;32313;48.722;9.362;2022-11-11T17:17:09;9.63;;;8.37;;
46589;SDS011;32313;48.722;9.362;2022-11-11T17:19:59;10.43;;;9.43;;
46589;SDS011;32313;48.722;9.362;2022-11-11T17:22:53;10.47;;;9.50;;
46589;SDS011;32313;48.722;9.362;2022-11-11T17:25:38;13.03;;;10.80;;
46589;SDS011;32313;48.722;9.362;2022-11-11T17:28:23;10.43;;;9.47;;
46589;SDS011;32313;48.722;9.362;2022-11-11T17:31:08;10.27;;;9.07;;
46589;SDS011;32313;48.722;9.362;2022-11-11T17:33:54;12.80;;;10.13;;
46589;SDS011;32313;48.722;9.362;2022-11-11T17:36:38;12.90;;;10.23;;
46589;SDS011;32313;48.722;9.362;2022-11-11T17:39:22;14.93;;;10.37;;
46589;SDS011;32313;48.722;9.362;2022-11-11T17:42:06;12.63;;;10.97;;
46589;SDS011;32313;48.722;9.362;2022-11-11T17:44:50;10.93;;;9.87;;
46589;SDS011;32313;48.722;9.362;2022-11-11T17:47:34;12.23;;;11.03;;
46589;SDS011;32313;48.722;9.362;2022-11-11T17:50:18;12.70;;;11.40;;
46589;SDS011;32313;48.722;9.362;2022-11-11T17:53:03;13.53;;;12.13;;
46589;SDS011;32313;48.722;9.362;2022-11-11T17:55:47;14.17;;;12.67;;
46589;SDS011;32313;48.722;9.362;2022-11-11T17:58:36;13.30;;;12.00;;
46589;SDS011;32313;48.722;9.362;2022-11-11T18:01:21;12.00;;;10.97;;
46589;SDS011;32313;48.722;9.362;2022-11-11T18:04:05;12.60;;;11.33;;
46589;SDS011;32313;48.722;9.362;2022-11-11T18:06:50;13.10;;;11.87;;
46589;SDS011;32313;48.722;9.362;2022-11-11T18:09:34;12.63;;;11.33;;
46589;SDS011;32313;48.722;9.362;2022-11-11T18:12:18;13.97;;;12.77;;
46589;SDS011;32313;48.722;9.362;2022-11-11T18:15:03;14.70;;;13.20;;
46589;SDS011;32313;48.722;9.362;2022-11-11T18:17:49;16.70;;;14.97;;
46589;SDS011;32313;48.722;9.362;2022-11-11T18:20:39;15.30;;;13.77;;
46589;SDS011;32313;48.722;9.362;2022-11-11T18:23:23;14.87;;;13.47;;
46589;SDS011;32313;48.722;9.362;2022-11-11T18:26:07;14.87;;;13.37;;
46589;SDS011;32313;48.722;9.362;2022-11-11T18:28:51;16.33;;;14.20;;
46589;SDS011;32313;48.722;9.362;2022-11-11T18:31:36;16.57;;;15.00;;
46589;SDS011;32313;48.722;9.362;2022-11-11T18:34:20;16.27;;;14.60;;
46589;SDS011;32313;48.722;9.362;2022-11-11T18:37:04;18.07;;;16.47;;
46589;SDS011;32313;48.722;9.362;2022-11-11T18:39:48;20.40;;;18.23;;
46589;SDS011;32313;48.722;9.362;2022-11-11T18:42:32;33.57;;;23.17;;
46589;SDS011;32313;48.722;9.362;2022-11-11T18:45:16;23.93;;;21.47;;
46589;SDS011;32313;48.722;9.362;2022-11-11T18:48:01;26.97;;;23.43;;
46589;SDS011;32313;48.722;9.362;2022-11-11T18:50:51;32.67;;;26.67;;
46589;SDS011;32313;48.722;9.362;2022-11-11T18:53:37;28.23;;;25.10;;
46589;SDS011;32313;48.722;9.362;2022-11-11T18:56:23;27.93;;;23.00;;
46589;SDS011;32313;48.722;9.362;2022-11-11T18:59:08;29.07;;;25.93;;
46589;SDS011;32313;48.722;9.362;2022-11-11T19:01:52;33.27;;;25.50;;
46589;SDS011;32313;48.722;9.362;2022-11-11T19:04:36;38.40;;;31.33;;
46589;SDS011;32313;48.722;9.362;2022-11-11T19:07:20;32.40;;;28.33;;
46589;SDS011;32313;48.722;9.362;2022-11-11T19:10:04;38.83;;;28.10;;
46589;SDS011;32313;48.722;9.362;2022-11-11T19:12:49;38.80;;;31.40;;
46589;SDS011;32313;48.722;9.362;2022-11-11T19:15:33;32.57;;;28.57;;